createdAt,value
2022-11-03T00:01:55.218Z,14.10
2022-11-03T00:04:57.260Z,14.10
2022-11-03T00:07:43.067Z,14.10
2022-11-03T00:10:31.167Z,14.00
2022-11-03T00:13:10.714Z,14.00
2022-11-03T00:15:52.681Z,14.00
2022-11-03T00:18:52.205Z,14.00
2022-11-03T00:21:19.732Z,13.90
2022-11-03T00:23:56.923Z,13.90
2022-11-03T00:26:30.033Z,13.90
2022-11-03T00:28:58.341Z,13.80
2022-11-03T00:31:26.501Z,13.90
2022-11-03T00:33:53.762Z,13.80
2022-11-03T00:36:22.687Z,13.80
2022-11-03T00:38:51.716Z,13.80
2022-11-03T00:41:21.664Z,13.80
2022-11-03T00:43:51.163Z,13.70
2022-11-03T00:46:21.674Z,13.70
2022-11-03T00:48:51.294Z,13.70
2022-11-03T00:51:23.528Z,13.70
2022-11-03T00:54:00.547Z,13.70
2022-11-03T00:56:34.135Z,13.70
2022-11-03T00:59:05.960Z,13.70
2022-11-03T01:01:43.924Z,13.60
2022-11-03T01:04:36.461Z,13.60
2022-11-03T01:07:04.288Z,13.60
2022-11-03T01:09:33.511Z,13.60
2022-11-03T01:12:13.577Z,13.60
2022-11-03T01:14:41.508Z,13.50
2022-11-03T01:17:15.590Z,13.50
2022-11-03T01:19:42.689Z,13.50
2022-11-03T01:22:11.056Z,13.50
2022-11-03T01:24:39.526Z,13.50
2022-11-03T01:27:13.439Z,13.50
2022-11-03T01:29:42.918Z,13.50
2022-11-03T01:32:18.802Z,13.50
2022-11-03T01:34:55.778Z,13.50
2022-11-03T01:37:25.372Z,13.50
2022-11-03T01:39:57.118Z,13.50
2022-11-03T01:42:24.270Z,13.40
2022-11-03T01:44:53.795Z,13.40
2022-11-03T01:47:27.791Z,13.40
2022-11-03T01:50:18.541Z,13.40
2022-11-03T01:52:50.375Z,13.40
2022-11-03T01:55:20.080Z,13.40
2022-11-03T01:57:54.129Z,13.40
2022-11-03T02:00:21.516Z,13.40
2022-11-03T02:02:48.583Z,13.40
2022-11-03T02:05:15.810Z,13.40
2022-11-03T02:07:47.711Z,13.40
2022-11-03T02:10:14.869Z,13.40
2022-11-03T02:12:41.954Z,13.40
2022-11-03T02:15:10.601Z,13.40
2022-11-03T02:17:38.013Z,13.40
2022-11-03T02:20:19.916Z,13.50
2022-11-03T02:22:58.783Z,13.40
2022-11-03T02:25:40.733Z,13.40
2022-11-03T02:28:11.477Z,13.40
2022-11-03T02:31:08.820Z,13.40
2022-11-03T02:33:38.840Z,13.40
2022-11-03T02:36:29.272Z,13.40
2022-11-03T02:39:04.276Z,13.40
2022-11-03T02:41:32.246Z,13.40
2022-11-03T02:43:59.310Z,13.40
2022-11-03T02:46:26.534Z,13.40
2022-11-03T02:48:53.634Z,13.40
2022-11-03T02:51:20.579Z,13.40
2022-11-03T02:54:04.624Z,13.40
2022-11-03T02:56:39.415Z,13.40
2022-11-03T02:59:10.259Z,13.40
2022-11-03T03:01:47.648Z,13.50
2022-11-03T03:04:27.650Z,13.50
2022-11-03T03:07:21.223Z,13.50
2022-11-03T03:10:27.228Z,13.50
2022-11-03T03:13:12.770Z,13.50
2022-11-03T03:15:49.444Z,13.50
2022-11-03T03:18:57.409Z,13.50
2022-11-03T03:21:37.366Z,13.50
2022-11-03T03:24:12.611Z,13.50
2022-11-03T03:27:39.261Z,13.50
2022-11-03T03:29:52.242Z,13.50
2022-11-03T03:32:21.854Z,13.50
2022-11-03T03:35:03.064Z,13.50
2022-11-03T03:37:39.841Z,13.60
2022-11-03T03:40:22.119Z,13.50
2022-11-03T03:42:51.752Z,13.60
2022-11-03T03:45:22.681Z,13.60
2022-11-03T03:47:57.328Z,13.60
2022-11-03T03:50:28.981Z,13.60
2022-11-03T03:53:14.753Z,13.60
2022-11-03T03:55:52.358Z,13.60
2022-11-03T03:58:26.020Z,13.60
2022-11-03T04:01:16.843Z,13.60
2022-11-03T04:03:49.576Z,13.60
2022-11-03T04:06:19.036Z,13.60
2022-11-03T04:09:12.903Z,13.70
2022-11-03T04:11:59.939Z,13.70
2022-11-03T04:14:45.819Z,13.70
2022-11-03T04:17:39.528Z,13.70
2022-11-03T04:20:33.339Z,13.70
2022-11-03T04:23:00.486Z,13.70
2022-11-03T04:25:27.733Z,13.70
2022-11-03T04:27:55.040Z,13.70
2022-11-03T04:30:26.577Z,13.80
2022-11-03T04:32:56.049Z,13.80
2022-11-03T04:35:24.415Z,13.80
2022-11-03T04:38:13.355Z,13.80
2022-11-03T04:40:47.109Z,13.80
2022-11-03T04:43:18.962Z,13.80
2022-11-03T04:45:46.660Z,13.80
2022-11-03T04:48:23.551Z,13.90
2022-11-03T04:50:56.809Z,13.90
2022-11-03T04:53:23.963Z,13.90
2022-11-03T04:59:51.051Z,13.90
2022-11-03T05:03:03.089Z,13.90
2022-11-03T05:05:40.307Z,13.90
2022-11-03T05:08:34.444Z,13.90
2022-11-03T05:11:31.358Z,13.90
2022-11-03T05:14:52.941Z,13.90
2022-11-03T05:18:15.008Z,13.90
2022-11-03T05:28:04.269Z,13.90
2022-11-03T05:30:59.850Z,13.90
2022-11-03T05:38:52.405Z,13.90
2022-11-03T05:51:22.168Z,13.90
2022-11-03T05:57:21.527Z,13.90
2022-11-03T05:59:53.647Z,13.90
2022-11-03T06:04:07.273Z,13.90
2022-11-03T06:06:50.071Z,13.90
2022-11-03T06:10:46.918Z,13.90
2022-11-03T06:13:04.858Z,13.90
2022-11-03T06:15:36.481Z,13.90
2022-11-03T06:18:48.385Z,13.90
2022-11-03T06:21:28.993Z,13.90
2022-11-03T06:24:04.797Z,13.90
2022-11-03T06:26:44.038Z,13.80
2022-11-03T06:29:21.924Z,13.70
2022-11-03T06:32:33.631Z,13.60
2022-11-03T06:35:08.642Z,13.60
2022-11-03T06:37:35.877Z,13.50
2022-11-03T06:40:36.341Z,13.50
2022-11-03T06:43:19.734Z,13.40
2022-11-03T06:46:07.600Z,13.40
2022-11-03T06:48:38.447Z,13.30
2022-11-03T06:51:58.965Z,13.20
2022-11-03T06:54:36.942Z,13.10
2022-11-03T06:57:09.959Z,13.00
2022-11-03T07:00:33.978Z,12.80
2022-11-03T07:03:25.727Z,12.80
2022-11-03T07:06:21.951Z,12.70
2022-11-03T07:09:12.445Z,12.70
2022-11-03T07:11:52.243Z,12.70
2022-11-03T07:16:27.944Z,12.70
2022-11-03T07:18:53.649Z,12.60
2022-11-03T07:22:34.162Z,12.60
2022-11-03T07:25:12.366Z,12.60
2022-11-03T07:27:44.875Z,12.60
2022-11-03T07:38:42.317Z,12.50
2022-11-03T07:41:28.175Z,12.50
2022-11-03T07:44:05.245Z,12.50
2022-11-03T07:47:07.969Z,12.50
2022-11-03T07:55:17.175Z,12.50
2022-11-03T07:58:04.712Z,12.50
2022-11-03T08:00:50.963Z,12.50
2022-11-03T08:03:41.838Z,12.50
2022-11-03T08:06:39.853Z,12.50
2022-11-03T08:09:07.360Z,12.50
2022-11-03T08:14:31.647Z,12.50
2022-11-03T08:17:04.339Z,12.50
2022-11-03T08:23:49.188Z,12.50
2022-11-03T08:25:50.411Z,12.50
2022-11-03T08:28:38.051Z,12.50
2022-11-03T08:36:57.562Z,12.50
2022-11-03T08:39:44.714Z,12.50
2022-11-03T08:46:09.648Z,12.50
2022-11-03T08:48:40.363Z,12.50
2022-11-03T08:51:10.619Z,12.60
2022-11-03T09:05:36.449Z,12.60
2022-11-03T09:10:50.764Z,12.60
2022-11-03T09:13:20.598Z,12.70
2022-11-03T09:15:54.281Z,12.70
2022-11-03T09:29:22.094Z,12.70
2022-11-03T09:31:57.734Z,12.70
2022-11-03T09:34:25.122Z,12.70
2022-11-03T09:36:53.335Z,12.70
2022-11-03T09:39:23.941Z,12.80
2022-11-03T09:42:48.502Z,12.70
2022-11-03T09:45:23.958Z,12.80
2022-11-03T09:53:38.814Z,12.80
2022-11-03T09:56:06.237Z,12.80
2022-11-03T09:58:33.345Z,12.70
2022-11-03T10:01:08.615Z,12.80
2022-11-03T10:03:50.573Z,12.80
2022-11-03T10:06:20.517Z,12.80
2022-11-03T10:08:47.676Z,12.80
2022-11-03T10:11:25.576Z,12.80
2022-11-03T10:13:59.046Z,12.80
2022-11-03T10:16:26.326Z,12.80
2022-11-03T10:18:53.763Z,12.70
2022-11-03T10:21:29.840Z,12.70
2022-11-03T10:23:57.046Z,12.70
2022-11-03T10:26:30.665Z,12.70
2022-11-03T10:29:37.353Z,12.70
2022-11-03T10:39:56.477Z,12.80
2022-11-03T10:42:35.784Z,12.80
2022-11-03T10:45:24.363Z,12.80
2022-11-03T10:48:26.455Z,12.80
2022-11-03T10:50:53.659Z,12.90
2022-11-03T10:53:49.211Z,12.90
2022-11-03T10:56:39.098Z,12.90
2022-11-03T10:59:10.066Z,12.90
2022-11-03T11:01:43.160Z,12.90
2022-11-03T11:04:18.051Z,12.80
2022-11-03T11:06:48.561Z,12.90
2022-11-03T11:09:20.981Z,12.90
2022-11-03T11:12:13.001Z,12.90
2022-11-03T11:15:36.909Z,12.90
2022-11-03T11:21:59.318Z,12.90
2022-11-03T11:25:15.808Z,12.90
2022-11-03T11:29:19.463Z,13.00
2022-11-03T11:35:59.245Z,13.00
2022-11-03T11:38:51.127Z,13.10
2022-11-03T11:41:43.996Z,13.00
2022-11-03T11:44:59.323Z,13.10
2022-11-03T11:47:35.982Z,13.10
2022-11-03T11:50:06.058Z,13.10
2022-11-03T11:52:35.007Z,13.10
2022-11-03T11:55:02.069Z,13.10
2022-11-03T11:57:29.607Z,13.10
2022-11-03T11:59:56.647Z,13.20
2022-11-03T12:02:24.419Z,13.20
2022-11-03T12:05:01.336Z,13.30
2022-11-03T12:07:35.207Z,13.40
2022-11-03T12:10:30.941Z,13.50
2022-11-03T12:13:04.397Z,13.50
2022-11-03T12:15:58.853Z,13.60
2022-11-03T12:18:31.150Z,13.60
2022-11-03T12:21:03.801Z,13.70
2022-11-03T12:23:37.612Z,13.70
2022-11-03T12:26:06.602Z,13.60
2022-11-03T12:28:39.694Z,13.70
2022-11-03T12:31:26.432Z,13.70
2022-11-03T12:34:07.782Z,13.70
2022-11-03T12:36:37.513Z,13.80
2022-11-03T12:39:04.916Z,13.80
2022-11-03T12:41:32.529Z,13.80
2022-11-03T12:43:59.864Z,13.80
2022-11-03T12:46:32.723Z,13.90
2022-11-03T12:49:22.994Z,13.80
2022-11-03T12:51:50.172Z,13.90
2022-11-03T12:54:17.223Z,13.90
2022-11-03T12:56:44.366Z,13.90
2022-11-03T12:59:11.426Z,13.90
2022-11-03T13:01:39.696Z,13.90
2022-11-03T13:04:06.867Z,14.00
2022-11-03T13:07:11.509Z,14.00
2022-11-03T13:10:20.006Z,14.10
2022-11-03T13:13:20.976Z,14.10
2022-11-03T13:16:02.487Z,14.10
2022-11-03T13:18:29.661Z,14.10
2022-11-03T13:20:56.731Z,14.10
2022-11-03T13:23:23.768Z,14.00
2022-11-03T13:25:50.927Z,14.00
2022-11-03T13:28:18.141Z,13.90
2022-11-03T13:30:47.475Z,13.90
2022-11-03T13:33:14.536Z,13.80
2022-11-03T13:35:46.387Z,13.80
2022-11-03T13:38:13.650Z,13.70
2022-11-03T13:40:56.380Z,13.70
2022-11-03T13:43:48.331Z,13.60
2022-11-03T13:46:15.506Z,13.60
2022-11-03T13:49:43.897Z,13.50
2022-11-03T13:51:39.745Z,13.50
2022-11-03T13:59:46.198Z,13.30
2022-11-03T14:05:00.140Z,13.30
2022-11-03T14:07:45.288Z,13.30
2022-11-03T14:10:46.972Z,13.30
2022-11-03T14:14:23.251Z,13.40
2022-11-03T14:19:43.770Z,13.50
2022-11-03T14:22:11.946Z,13.60
2022-11-03T14:24:39.195Z,13.60
2022-11-03T14:27:06.242Z,13.70
2022-11-03T14:29:33.213Z,13.70
2022-11-03T14:32:03.005Z,13.70
2022-11-03T14:34:32.824Z,13.80
2022-11-03T14:37:28.905Z,13.70
2022-11-03T14:40:38.560Z,13.70
2022-11-03T14:43:18.368Z,13.70
2022-11-03T14:45:53.129Z,13.70
2022-11-03T14:48:26.040Z,13.70
2022-11-03T14:50:53.659Z,13.70
2022-11-03T14:54:09.602Z,13.60
2022-11-03T14:56:36.853Z,13.70
2022-11-03T14:59:04.051Z,13.60
2022-11-03T15:01:32.875Z,13.60
2022-11-03T15:04:08.076Z,13.60
2022-11-03T15:06:36.035Z,13.50
2022-11-03T15:11:40.162Z,13.50
2022-11-03T15:14:10.163Z,13.50
2022-11-03T15:16:38.012Z,13.50
2022-11-03T15:19:05.460Z,13.40
2022-11-03T15:21:32.723Z,13.40
2022-11-03T15:26:56.707Z,13.40
2022-11-03T15:29:26.416Z,13.40
2022-11-03T15:31:56.377Z,13.40
2022-11-03T15:34:29.982Z,13.40
2022-11-03T15:36:57.285Z,13.40
2022-11-03T15:39:30.063Z,13.40
2022-11-03T15:41:57.431Z,13.30
2022-11-03T15:44:53.833Z,13.40
2022-11-03T15:51:45.325Z,13.40
2022-11-03T15:54:21.221Z,13.40
2022-11-03T16:00:27.972Z,13.20
2022-11-03T16:03:20.434Z,13.10
2022-11-03T16:05:50.521Z,13.00
2022-11-03T16:08:17.994Z,12.90
2022-11-03T16:21:56.189Z,12.50
2022-11-03T16:24:34.819Z,12.40
2022-11-03T16:38:02.303Z,12.00
2022-11-03T16:40:46.047Z,11.90
2022-11-03T16:46:10.683Z,11.90
2022-11-03T16:49:02.797Z,11.80
2022-11-03T16:51:29.767Z,11.70
2022-11-03T16:54:00.137Z,11.70
2022-11-03T16:56:27.416Z,11.70
2022-11-03T16:59:04.734Z,11.60
2022-11-03T17:01:32.400Z,11.50
2022-11-03T17:03:59.507Z,11.50
2022-11-03T17:06:26.610Z,11.40
2022-11-03T17:08:54.012Z,11.40
2022-11-03T17:11:36.169Z,11.40
2022-11-03T17:14:04.841Z,11.30
2022-11-03T17:16:31.854Z,11.30
2022-11-03T17:18:58.821Z,11.20
2022-11-03T17:21:26.484Z,11.20
2022-11-03T17:23:53.606Z,11.20
2022-11-03T17:26:45.574Z,11.10
2022-11-03T17:29:17.908Z,11.10
2022-11-03T17:32:07.701Z,11.00
2022-11-03T17:34:32.902Z,11.00
2022-11-03T17:37:05.349Z,11.00
2022-11-03T17:39:34.487Z,10.90
2022-11-03T17:42:11.161Z,10.90
2022-11-03T17:44:38.229Z,10.90
2022-11-03T17:47:26.782Z,10.80
2022-11-03T17:50:10.179Z,10.70
2022-11-03T17:52:42.295Z,10.70
2022-11-03T17:55:38.299Z,10.70
2022-11-03T17:59:10.117Z,10.60
2022-11-03T18:01:45.040Z,10.60
2022-11-03T18:04:40.001Z,10.50
2022-11-03T18:08:18.961Z,10.50
2022-11-03T18:11:14.256Z,10.40
2022-11-03T18:19:42.143Z,10.40
2022-11-03T18:22:48.482Z,10.30
2022-11-03T18:25:20.354Z,10.30
2022-11-03T18:27:47.816Z,10.30
2022-11-03T18:30:18.353Z,10.20
2022-11-03T18:32:49.085Z,10.20
2022-11-03T18:36:41.120Z,10.20
2022-11-03T18:39:31.649Z,10.20
2022-11-03T18:42:40.161Z,10.10
2022-11-03T18:45:53.361Z,10.10
2022-11-03T18:48:55.753Z,10.00
2022-11-03T18:51:21.267Z,10.00
2022-11-03T18:53:51.060Z,10.00
2022-11-03T18:56:57.669Z,9.90
2022-11-03T18:59:40.215Z,9.90
2022-11-03T19:03:29.905Z,9.80
2022-11-03T19:09:39.127Z,9.70
2022-11-03T19:12:45.720Z,9.70
2022-11-03T19:16:00.112Z,9.70
2022-11-03T19:18:48.967Z,9.60
2022-11-03T19:21:49.891Z,9.60
2022-11-03T19:24:58.213Z,9.50
2022-11-03T19:30:15.775Z,9.40
2022-11-03T19:33:04.221Z,9.40
2022-11-03T19:35:50.786Z,9.40
2022-11-03T19:38:32.839Z,9.40
2022-11-03T19:41:25.983Z,9.30
2022-11-03T19:43:59.287Z,9.30
2022-11-03T19:46:42.113Z,9.30
2022-11-03T19:49:28.182Z,9.30
2022-11-03T19:52:01.726Z,9.20
2022-11-03T19:54:58.108Z,9.30
2022-11-03T19:57:53.522Z,9.20
2022-11-03T20:00:35.929Z,9.30
2022-11-03T20:06:53.086Z,9.20
2022-11-03T20:10:33.219Z,9.20
2022-11-03T20:12:58.851Z,9.20
2022-11-03T20:15:35.676Z,9.20
2022-11-03T20:18:10.866Z,9.20
2022-11-03T20:21:19.899Z,9.20
2022-11-03T20:30:03.009Z,9.20
2022-11-03T20:32:58.991Z,9.20
2022-11-03T20:42:46.382Z,9.30
2022-11-03T20:45:44.768Z,9.30
2022-11-03T20:58:50.765Z,9.40
2022-11-03T21:02:08.108Z,9.40
2022-11-03T21:08:40.449Z,9.40
2022-11-03T21:11:45.521Z,9.40
2022-11-03T21:19:30.909Z,9.50
2022-11-03T21:22:30.737Z,9.50
2022-11-03T22:46:48.297Z,10.10
2022-11-03T22:56:29.715Z,10.10
2022-11-03T22:58:56.793Z,10.10
2022-11-03T23:05:06.652Z,10.10
2022-11-03T23:11:29.464Z,10.10
2022-11-03T23:14:00.496Z,10.20
2022-11-03T23:16:30.573Z,10.10
2022-11-03T23:19:17.130Z,10.20
2022-11-03T23:21:45.559Z,10.10
2022-11-03T23:24:31.366Z,10.20
2022-11-03T23:26:59.710Z,10.20
2022-11-03T23:29:27.183Z,10.20
2022-11-03T23:31:54.683Z,10.20
2022-11-03T23:34:24.757Z,10.20
2022-11-03T23:36:51.919Z,10.20
2022-11-03T23:39:19.660Z,10.20
2022-11-03T23:41:47.017Z,10.20
2022-11-03T23:44:15.397Z,10.20
2022-11-03T23:47:01.100Z,10.20
2022-11-03T23:49:28.145Z,10.20
2022-11-03T23:51:55.178Z,10.30
2022-11-03T23:54:22.119Z,10.20
2022-11-03T23:57:09.851Z,10.30
2022-11-03T23:59:36.854Z,10.30
